Terminal Aerodrome Forecast
Issued by NWS Atlanta, GA

Home | Current Version | Previous Version | Text Only | Print | Product List | Glossary On
Versions: 1 2 3 4 5 6 7 8 9 10 11 12 13 14 15 16 17 18 19 20 21 22 23 24 25 26 27 28 29 30 31 32 33 34 35 36 37 38 39 40 41 42 43 44 45
000
FTUS42 KFFC 232144 AAB
TAFATL
TAF AMD
KATL 232144Z 2322/2424 10014G22KT 4SM -SHRA BR OVC006
      TEMPO 2322/2323 2SM SHRA BR OVC004
     FM232300 15010G20KT 4SM -SHRA BR OVC006
     FM240300 19010KT 3SM BR OVC004
     FM241500 24012G19KT P6SM BKN015 OVC030
     FM241800 25012G20KT P6SM SCT035=

USA.gov is the U.S. government's official web portal to all federal, state and local government web resources and services.